Time;durP1;ratioP1;P1;durP2;ratioP2;P2;SDS_P1;SDS_P2;PMS_P1;PMS_P2;Temp;Humidity;BMP_temperature;BMP_pressure;BME280_temperature;BME280_humidity;BME280_pressure;Samples;Min_cycle;Max_cycle;Signal;HPM_P1;HPM_P2
2021/09/09 00:02:11;;;;;;;12.10;4.80;;;18.10;99.90;;;;;;5016744;28;20075;-76
2021/09/09 00:04:37;;;;;;;12.50;5.15;;;18.00;99.90;;;;;;5033909;28;20080;-76
2021/09/09 00:07:03;;;;;;;10.02;5.18;;;18.00;99.90;;;;;;5016554;28;20387;-76
2021/09/09 00:09:29;;;;;;;8.55;4.55;;;18.00;99.90;;;;;;5034316;28;20041;-75
2021/09/09 00:11:55;;;;;;;10.85;5.10;;;17.90;99.90;;;;;;5034268;28;20475;-77
2021/09/09 00:14:21;;;;;;;9.52;4.88;;;18.10;99.90;;;;;;5019388;28;20497;-76
2021/09/09 00:16:47;;;;;;;9.60;4.82;;;17.90;99.90;;;;;;5053979;28;20028;-75
2021/09/09 00:19:14;;;;;;;11.00;4.95;;;17.90;99.90;;;;;;5036328;28;20095;-75
2021/09/09 00:21:39;;;;;;;12.82;5.35;;;17.90;99.90;;;;;;5036395;28;20035;-76
2021/09/09 00:24:05;;;;;;;9.82;5.10;;;17.90;99.90;;;;;;5052199;28;20100;-75
2021/09/09 00:26:30;;;;;;;10.55;4.47;;;17.90;99.90;;;;;;5033828;28;20475;-76
2021/09/09 00:28:56;;;;;;;10.05;5.10;;;17.90;99.90;;;;;;5033671;28;20101;-75
2021/09/09 00:31:21;;;;;;;12.07;5.45;;;17.90;99.90;;;;;;5033928;28;20025;-77
2021/09/09 00:33:47;;;;;;;10.07;5.32;;;17.80;99.90;;;;;;5036534;28;20475;-78
2021/09/09 00:36:13;;;;;;;11.95;5.22;;;17.80;99.90;;;;;;5055956;28;20394;-78
2021/09/09 00:38:38;;;;;;;12.32;5.30;;;17.80;99.90;;;;;;5059279;28;20029;-78
2021/09/09 00:41:04;;;;;;;11.20;5.28;;;17.80;99.90;;;;;;5040918;28;20021;-78
2021/09/09 00:43:30;;;;;;;10.65;5.38;;;17.70;99.90;;;;;;5058866;28;20024;-78
2021/09/09 00:45:56;;;;;;;13.15;5.28;;;17.70;99.90;;;;;;5058774;28;20029;-78
2021/09/09 00:48:23;;;;;;;13.75;5.40;;;17.70;99.90;;;;;;5058007;28;20057;-77
2021/09/09 00:50:50;;;;;;;10.32;5.32;;;17.60;99.90;;;;;;5058971;28;20021;-78
2021/09/09 00:53:18;;;;;;;12.50;5.25;;;17.80;99.90;;;;;;5057856;28;20033;-78
2021/09/09 00:55:47;;;;;;;12.70;5.90;;;17.60;99.90;;;;;;5058041;28;20367;-78
2021/09/09 00:58:16;;;;;;;13.77;6.03;;;17.60;99.90;;;;;;5040882;28;20116;-78
2021/09/09 01:00:42;;;;;;;14.88;6.35;;;17.50;99.90;;;;;;5058918;28;20028;-79
2021/09/09 01:03:07;;;;;;;14.32;5.65;;;17.50;99.90;;;;;;5058805;28;20025;-79
2021/09/09 01:05:37;;;;;;;10.75;5.90;;;17.40;99.90;;;;;;5058476;28;20371;-78
2021/09/09 01:08:04;;;;;;;13.65;5.80;;;17.40;99.90;;;;;;5058362;28;20040;-78
2021/09/09 01:10:29;;;;;;;15.15;5.72;;;17.30;99.90;;;;;;5040581;28;20375;-77
2021/09/09 01:12:56;;;;;;;12.98;6.25;;;17.30;99.90;;;;;;5059202;28;20059;-76
2021/09/09 01:15:22;;;;;;;12.45;5.70;;;17.30;99.90;;;;;;5057483;28;20040;-76
2021/09/09 01:17:48;;;;;;;11.80;5.38;;;17.20;99.90;;;;;;5039678;28;20059;-76
2021/09/09 01:20:14;;;;;;;14.70;5.72;;;17.10;99.90;;;;;;5057849;28;20100;-76
2021/09/09 01:22:43;;;;;;;11.32;5.82;;;17.10;99.90;;;;;;5057790;28;20047;-76
2021/09/09 01:25:11;;;;;;;15.98;6.47;;;17.00;99.90;;;;;;5058501;28;20033;-76
2021/09/09 01:27:37;;;;;;;19.48;6.70;;;17.00;99.90;;;;;;5040312;28;20021;-77
2021/09/09 01:30:03;;;;;;;11.43;6.53;;;17.00;99.90;;;;;;5058389;28;20074;-77
2021/09/09 01:32:29;;;;;;;11.02;5.93;;;17.00;99.90;;;;;;5040042;28;20025;-77
2021/09/09 01:34:55;;;;;;;13.38;6.38;;;17.00;99.90;;;;;;5057427;28;20391;-77
2021/09/09 01:37:20;;;;;;;12.23;6.15;;;17.00;99.90;;;;;;5057829;28;20489;-77
2021/09/09 01:39:47;;;;;;;15.95;6.57;;;17.00;99.90;;;;;;5057747;28;20040;-78
2021/09/09 01:42:13;;;;;;;15.65;6.47;;;16.90;99.90;;;;;;5040135;28;20031;-78
2021/09/09 01:44:39;;;;;;;13.10;6.45;;;16.80;99.90;;;;;;5039781;28;20559;-77
2021/09/09 01:47:05;;;;;;;12.13;5.88;;;16.80;99.90;;;;;;5058188;28;20029;-78
2021/09/09 01:49:31;;;;;;;14.85;6.90;;;16.80;99.90;;;;;;5057830;28;20036;-78
2021/09/09 01:51:56;;;;;;;15.55;6.80;;;16.80;99.90;;;;;;5039760;28;20025;-78
2021/09/09 01:54:23;;;;;;;12.07;6.65;;;16.80;99.90;;;;;;5039568;28;20028;-78
2021/09/09 01:56:49;;;;;;;12.82;6.20;;;16.70;99.90;;;;;;5057816;28;20025;-78
2021/09/09 01:59:16;;;;;;;13.13;6.78;;;16.70;99.90;;;;;;5057558;28;20028;-77
2021/09/09 02:01:42;;;;;;;13.50;6.47;;;16.70;99.90;;;;;;5034789;28;20029;-79
2021/09/09 02:04:07;;;;;;;14.70;7.07;;;16.70;99.90;;;;;;5053239;28;20033;-79
2021/09/09 02:06:34;;;;;;;15.10;7.05;;;16.70;99.90;;;;;;5053487;28;20028;-80
2021/09/09 02:09:00;;;;;;;14.90;6.13;;;16.60;99.90;;;;;;5035053;28;20025;-75
2021/09/09 02:11:26;;;;;;;17.45;7.03;;;16.60;99.90;;;;;;5052544;28;20482;-76
2021/09/09 02:13:52;;;;;;;13.00;7.07;;;16.60;99.90;;;;;;5035417;28;20031;-80
2021/09/09 02:16:18;;;;;;;15.02;6.88;;;16.50;99.90;;;;;;5034692;28;20026;-76
2021/09/09 02:18:44;;;;;;;11.82;6.47;;;16.50;99.90;;;;;;5054187;28;20021;-80
2021/09/09 02:21:10;;;;;;;12.15;7.00;;;16.50;99.90;;;;;;5056271;28;20104;-77
2021/09/09 02:23:35;;;;;;;13.43;6.55;;;16.50;99.90;;;;;;5056816;28;20059;-80
2021/09/09 02:26:14;;;;;;;13.70;7.40;;;16.50;99.90;;;;;;5076247;22;20040;-89
2021/09/09 02:28:39;;;;;;;26.10;6.70;;;16.40;99.90;;;;;;5067604;28;20036;-89
2021/09/09 02:31:05;;;;;;;12.73;6.32;;;16.30;99.90;;;;;;5055952;28;20032;-89
2021/09/09 02:33:31;;;;;;;14.55;6.78;;;19.00;99.90;;;;;;5057975;28;20074;-89
2021/09/09 02:35:56;;;;;;;13.13;6.10;;;16.30;99.90;;;;;;5072322;28;20093;-89
2021/09/09 02:38:22;;;;;;;15.90;7.60;;;15.70;99.90;;;;;;5076730;28;20048;-89
2021/09/09 02:40:48;;;;;;;13.75;6.45;;;16.00;99.90;;;;;;5077774;28;20032;-89
2021/09/09 02:43:13;;;;;;;12.50;6.50;;;18.10;99.90;;;;;;5098000;28;20122;-88
2021/09/09 02:45:39;;;;;;;15.75;7.38;;;17.30;99.90;;;;;;5099983;28;20028;-87
2021/09/09 02:48:05;;;;;;;14.88;6.50;;;16.10;99.90;;;;;;5100604;28;20037;-88
2021/09/09 02:50:31;;;;;;;12.38;6.50;;;18.80;99.90;;;;;;5097069;28;20025;-88
2021/09/09 02:53:00;;;;;;;15.02;6.93;;;16.00;99.90;;;;;;5072935;28;20021;-89
2021/09/09 02:55:25;;;;;;;;;;;16.50;99.90;;;;;;5067902;28;20058;-89
2021/09/09 02:57:52;;;;;;;13.40;6.32;;;15.90;99.90;;;;;;5076757;28;19931;-88
2021/09/09 03:00:18;;;;;;;13.52;6.93;;;17.00;99.90;;;;;;5076893;28;20020;-89
2021/09/09 03:02:43;;;;;;;11.10;6.40;;;15.90;99.90;;;;;;5074875;28;20024;-89
2021/09/09 03:05:09;;;;;;;13.20;6.32;;;15.80;99.90;;;;;;5057816;28;20060;-88
2021/09/09 03:07:35;;;;;;;13.80;6.10;;;15.80;99.90;;;;;;5057322;28;20417;-89
2021/09/09 03:10:01;;;;;;;15.77;7.40;;;15.80;99.90;;;;;;5076269;28;20017;-89
2021/09/09 03:12:27;;;;;;;16.45;7.30;;;17.20;99.90;;;;;;5076001;28;20398;-87
2021/09/09 03:14:55;;;;;;;11.43;6.50;;;15.70;99.90;;;;;;5063812;28;20477;-88
2021/09/09 03:17:21;;;;;;;15.00;7.30;;;15.70;99.90;;;;;;5075831;28;20032;-91
2021/09/09 03:19:46;;;;;;;15.93;6.78;;;17.90;99.90;;;;;;5075222;28;20021;-88
2021/09/09 03:22:13;;;;;;;17.67;7.95;;;18.60;99.90;;;;;;5078339;28;20028;-89
2021/09/09 03:24:39;;;;;;;16.08;7.35;;;18.40;99.90;;;;;;5076148;28;20027;-89
2021/09/09 03:27:05;;;;;;;17.65;7.60;;;15.50;99.90;;;;;;5075804;28;20376;-91
2021/09/09 03:29:30;;;;;;;16.70;8.05;;;15.60;99.90;;;;;;5077228;28;20101;-89
2021/09/09 03:31:56;;;;;;;13.05;6.82;;;16.30;99.90;;;;;;5076444;28;20024;-89
2021/09/09 03:34:22;;;;;;;14.93;7.18;;;18.40;99.90;;;;;;5077311;28;20021;-89
2021/09/09 03:36:48;;;;;;;13.88;7.53;;;15.40;99.90;;;;;;5075642;28;20031;-89
2021/09/09 03:39:13;;;;;;;21.13;7.15;;;15.50;99.90;;;;;;5076059;28;20028;-89
2021/09/09 03:41:39;;;;;;;13.48;6.90;;;15.50;99.90;;;;;;5075218;28;20061;-88
2021/09/09 03:44:05;;;;;;;15.57;7.60;;;16.10;99.90;;;;;;5077355;28;20017;-89
2021/09/09 03:46:30;;;;;;;15.18;7.78;;;15.50;99.90;;;;;;5075794;28;20035;-89
2021/09/09 03:48:56;;;;;;;15.48;7.80;;;16.50;99.90;;;;;;5069650;28;20040;-89
2021/09/09 03:51:21;;;;;;;17.45;7.43;;;15.70;99.90;;;;;;5075700;28;20032;-89
2021/09/09 03:53:47;;;;;;;17.88;8.07;;;14.80;99.90;;;;;;5075614;28;20024;-89
2021/09/09 03:56:13;;;;;;;15.05;7.25;;;17.30;99.90;;;;;;5075399;28;20028;-89
2021/09/09 03:58:38;;;;;;;15.60;8.50;;;15.80;99.90;;;;;;5075700;28;20078;-89
2021/09/09 04:01:04;;;;;;;16.67;7.93;;;17.90;99.90;;;;;;5075285;28;20016;-88
2021/09/09 04:03:29;;;;;;;15.75;7.75;;;15.30;99.90;;;;;;5075444;28;20033;-89
2021/09/09 04:05:55;;;;;;;18.02;7.40;;;15.30;99.90;;;;;;5058524;28;20060;-90
2021/09/09 04:08:21;;;;;;;16.85;8.98;;;15.00;99.90;;;;;;5062924;28;20044;-89
2021/09/09 04:10:46;;;;;;;15.57;8.10;;;15.50;99.90;;;;;;5092762;28;20028;-89
2021/09/09 04:13:12;;;;;;;14.80;7.95;;;15.40;99.90;;;;;;5076204;28;20112;-89
2021/09/09 04:15:39;;;;;;;15.25;7.32;;;15.50;99.90;;;;;;5073916;28;20104;-88
2021/09/09 04:18:05;;;;;;;17.15;7.80;;;15.40;99.90;;;;;;5071967;28;20375;-88
2021/09/09 04:20:33;;;;;;;14.27;7.90;;;18.40;99.90;;;;;;5075281;28;20086;-89
2021/09/09 04:22:59;;;;;;;15.70;7.90;;;15.40;99.90;;;;;;5075176;28;20023;-89
2021/09/09 04:25:24;;;;;;;14.77;8.15;;;17.30;99.90;;;;;;5058211;28;20021;-89
2021/09/09 04:27:50;;;;;;;15.70;8.10;;;18.40;99.90;;;;;;5057419;28;20474;-89
2021/09/09 04:30:16;;;;;;;16.00;7.85;;;15.50;99.90;;;;;;5076087;28;20481;-89
2021/09/09 04:32:41;;;;;;;20.90;8.10;;;18.30;99.90;;;;;;5074818;28;20020;-89
2021/09/09 04:35:08;;;;;;;15.80;8.77;;;18.10;99.90;;;;;;5074497;28;20031;-89
2021/09/09 04:37:35;;;;;;;19.25;8.40;;;15.50;99.90;;;;;;5074841;28;20025;-90
2021/09/09 04:40:01;;;;;;;20.60;8.05;;;17.00;99.90;;;;;;5074489;28;20485;-89
2021/09/09 04:42:27;;;;;;;13.90;7.85;;;14.60;99.90;;;;;;5067806;28;20025;-89
2021/09/09 04:44:53;;;;;;;21.40;8.52;;;17.60;99.90;;;;;;5068970;28;20174;-89
2021/09/09 04:47:18;;;;;;;19.60;8.50;;;14.80;99.90;;;;;;5074808;28;20024;-90
2021/09/09 04:49:44;;;;;;;18.63;8.25;;;15.40;99.90;;;;;;5084133;28;20042;-89
2021/09/09 04:52:09;;;;;;;18.15;8.13;;;15.00;99.90;;;;;;5095113;28;20027;-87
2021/09/09 04:54:35;;;;;;;14.73;7.40;;;17.20;99.90;;;;;;5088775;28;20091;-87
2021/09/09 04:57:01;;;;;;;17.58;8.25;;;16.60;99.90;;;;;;5097650;28;20023;-88
2021/09/09 04:59:27;;;;;;;14.90;8.25;;;15.50;99.90;;;;;;5081141;28;20027;-89
2021/09/09 05:01:53;;;;;;;15.52;7.03;;;15.10;99.90;;;;;;5074217;28;20013;-89
2021/09/09 05:04:19;;;;;;;16.90;8.48;;;17.30;99.90;;;;;;5075089;28;20039;-89
2021/09/09 05:06:45;;;;;;;16.67;8.63;;;16.30;99.90;;;;;;5076102;28;20005;-89
2021/09/09 05:09:11;;;;;;;19.92;9.15;;;16.20;99.90;;;;;;5074182;28;20504;-87
2021/09/09 05:11:37;;;;;;;15.57;8.13;;;15.30;99.90;;;;;;5074185;28;20111;-89
2021/09/09 05:14:02;;;;;;;15.90;8.02;;;18.70;99.90;;;;;;5075136;28;20488;-89
2021/09/09 05:16:28;;;;;;;18.42;8.90;;;18.40;99.90;;;;;;5075492;28;20037;-89
2021/09/09 05:18:54;;;;;;;18.08;9.63;;;15.50;99.90;;;;;;5076072;28;20021;-89
2021/09/09 05:21:19;;;;;;;19.92;9.40;;;16.00;99.90;;;;;;5078456;28;20063;-89
2021/09/09 05:23:45;;;;;;;17.83;8.35;;;15.40;99.90;;;;;;5074602;28;20031;-88
2021/09/09 05:26:11;;;;;;;17.25;8.82;;;17.70;99.90;;;;;;5065295;28;20111;-88
2021/09/09 05:28:36;;;;;;;19.30;8.85;;;16.20;99.90;;;;;;5076404;28;20579;-88
2021/09/09 05:31:02;;;;;;;20.58;9.07;;;15.60;99.90;;;;;;5076193;28;20063;-87
2021/09/09 05:33:28;;;;;;;18.70;9.30;;;12.70;99.90;;;;;;5074739;28;20029;-87
2021/09/09 05:35:53;;;;;;;16.85;8.25;;;15.30;99.90;;;;;;5057322;28;20033;-88
2021/09/09 05:38:19;;;;;;;18.73;9.15;;;16.90;99.90;;;;;;5070094;28;20024;-88
2021/09/09 05:40:45;;;;;;;16.52;8.43;;;16.10;99.90;;;;;;5074178;28;20500;-88
2021/09/09 05:43:10;;;;;;;16.00;8.27;;;16.80;99.90;;;;;;5073519;28;20144;-87
2021/09/09 05:45:36;;;;;;;18.67;8.88;;;18.60;99.90;;;;;;5074949;28;20029;-88
2021/09/09 05:48:03;;;;;;;16.58;8.73;;;18.20;99.90;;;;;;5074535;28;20107;-88
2021/09/09 05:50:29;;;;;;;18.35;8.18;;;16.00;99.90;;;;;;5075083;28;20039;-87
2021/09/09 05:52:57;;;;;;;18.45;8.20;;;17.00;99.90;;;;;;5087564;28;20017;-87
2021/09/09 05:55:23;;;;;;;17.83;8.27;;;17.40;99.90;;;;;;5078370;28;20220;-87
2021/09/09 05:57:49;;;;;;;18.38;8.50;;;16.20;99.90;;;;;;5078815;28;20020;-87
2021/09/09 06:00:14;;;;;;;16.45;8.65;;;18.10;99.90;;;;;;5079627;28;20505;-87
2021/09/09 06:02:44;;;;;;;17.02;8.07;;;16.80;99.90;;;;;;5079262;28;20028;-87
2021/09/09 06:05:12;;;;;;;18.08;8.43;;;16.70;99.90;;;;;;5079925;28;20025;-87
2021/09/09 06:07:38;;;;;;;33.15;11.18;;;18.00;99.90;;;;;;5079522;28;20078;-87
2021/09/09 06:10:04;;;;;;;21.42;9.07;;;17.20;99.90;;;;;;5078110;28;20024;-88
2021/09/09 06:12:30;;;;;;;15.48;8.45;;;16.70;99.90;;;;;;5077879;28;20036;-87
2021/09/09 06:14:56;;;;;;;18.73;9.00;;;16.80;99.90;;;;;;5076506;28;20025;-87
2021/09/09 06:17:22;;;;;;;19.17;9.15;;;18.40;99.90;;;;;;5070690;28;20389;-88
2021/09/09 06:19:48;;;;;;;17.63;9.60;;;17.10;99.90;;;;;;5079251;28;20021;-87
2021/09/09 06:22:14;;;;;;;18.17;8.57;;;17.00;99.90;;;;;;5077809;28;20059;-88
2021/09/09 06:24:40;;;;;;;17.40;8.30;;;18.00;99.90;;;;;;5072255;28;20036;-88
2021/09/09 06:27:05;;;;;;;20.88;10.23;;;18.30;99.90;;;;;;5057968;28;20032;-88
2021/09/09 06:29:32;;;;;;;17.13;8.57;;;17.30;99.90;;;;;;5076003;28;20116;-87
2021/09/09 06:31:57;;;;;;;17.98;9.65;;;18.40;99.90;;;;;;5077830;28;20035;-87
2021/09/09 06:34:23;;;;;;;17.73;8.50;;;17.50;99.90;;;;;;5078686;28;20028;-88
2021/09/09 06:36:48;;;;;;;21.35;9.68;;;18.00;99.90;;;;;;5077924;28;20031;-87
2021/09/09 06:39:19;;;;;;;20.77;9.23;;;17.70;99.90;;;;;;5071964;28;20017;-87
2021/09/09 06:41:45;;;;;;;17.10;7.78;;;18.30;99.90;;;;;;5057753;28;20029;-87
2021/09/09 06:44:12;;;;;;;13.98;8.02;;;18.10;99.90;;;;;;5058796;28;20032;-87
2021/09/09 06:46:38;;;;;;;24.05;9.70;;;17.10;99.90;;;;;;5059524;28;20474;-88
2021/09/09 06:49:06;;;;;;;16.85;8.32;;;18.10;99.90;;;;;;5063461;28;20115;-87
2021/09/09 06:51:35;;;;;;;17.75;7.95;;;18.20;99.90;;;;;;5073706;28;20024;-87
2021/09/09 06:54:01;;;;;;;;;;;21.80;99.90;;;;;;5061598;28;20029;-88
2021/09/09 06:56:27;;;;;;;18.67;8.70;;;18.40;99.90;;;;;;5061123;28;19953;-88
2021/09/09 06:58:53;;;;;;;19.67;8.57;;;18.70;99.90;;;;;;5063628;28;20067;-87
2021/09/09 07:01:19;;;;;;;14.77;8.10;;;19.80;99.90;;;;;;5064760;28;20032;-87
2021/09/09 07:03:45;;;;;;;16.98;8.10;;;18.10;99.90;;;;;;5077341;28;20037;-88
2021/09/09 07:06:11;;;;;;;15.00;7.72;;;18.70;99.90;;;;;;5071137;28;20021;-87
2021/09/09 07:08:39;;;;;;;13.15;7.55;;;21.20;99.90;;;;;;5080300;28;20044;-87
2021/09/09 07:11:05;;;;;;;12.38;7.38;;;21.70;99.90;;;;;;5073341;28;20056;-87
2021/09/09 07:13:31;;;;;;;14.85;7.25;;;17.80;99.90;;;;;;5059179;28;20021;-87
2021/09/09 07:16:01;;;;;;;16.45;8.43;;;19.40;99.90;;;;;;5059479;28;20029;-89
2021/09/09 07:18:28;;;;;;;18.58;8.43;;;19.50;99.90;;;;;;5060155;28;20045;-89
2021/09/09 07:20:54;;;;;;;14.75;7.38;;;19.50;99.90;;;;;;5056133;28;20017;-90
2021/09/09 07:23:20;;;;;;;16.08;8.27;;;19.50;99.90;;;;;;5056375;28;20029;-90
2021/09/09 07:25:46;;;;;;;15.18;8.20;;;22.20;99.90;;;;;;5056064;28;20029;-89
2021/09/09 07:28:12;;;;;;;17.10;8.98;;;19.90;99.90;;;;;;5057855;28;20029;-89
2021/09/09 07:30:38;;;;;;;21.17;9.05;;;21.10;99.90;;;;;;5057014;28;20024;-89
2021/09/09 07:33:04;;;;;;;16.92;9.02;;;20.20;99.90;;;;;;5055812;28;20020;-89
2021/09/09 07:35:31;;;;;;;18.20;9.90;;;20.20;99.90;;;;;;5055768;28;20032;-89
2021/09/09 07:37:56;;;;;;;18.80;9.10;;;20.20;99.90;;;;;;5056402;28;20021;-89
2021/09/09 07:40:22;;;;;;;20.70;9.45;;;20.30;99.90;;;;;;5057622;28;20359;-90
2021/09/09 07:42:48;;;;;;;18.15;9.05;;;20.10;99.90;;;;;;5058125;28;20013;-90
2021/09/09 07:45:14;;;;;;;15.40;9.05;;;20.10;99.90;;;;;;5056541;28;20021;-89
2021/09/09 07:47:40;;;;;;;18.15;8.95;;;20.40;99.90;;;;;;5056920;28;20455;-89
2021/09/09 07:50:08;;;;;;;18.77;9.77;;;21.20;99.90;;;;;;5056400;28;20021;-89
2021/09/09 07:52:35;;;;;;;17.17;9.20;;;20.40;99.90;;;;;;5058775;28;20474;-89
2021/09/09 07:55:01;;;;;;;15.43;8.70;;;20.80;99.90;;;;;;5056348;28;20025;-89
2021/09/09 07:57:27;;;;;;;21.63;9.60;;;20.20;99.90;;;;;;5055677;28;20025;-89
2021/09/09 07:59:53;;;;;;;19.52;8.90;;;23.60;99.90;;;;;;5056107;28;20032;-91
2021/09/09 08:02:18;;;;;;;19.70;9.60;;;20.60;99.90;;;;;;5056312;28;20021;-90
2021/09/09 08:04:44;;;;;;;16.70;9.52;;;22.40;99.90;;;;;;5057151;28;20417;-89
2021/09/09 08:07:10;;;;;;;19.48;9.88;;;20.50;99.90;;;;;;5056572;28;20029;-90
2021/09/09 08:09:35;;;;;;;17.58;9.13;;;20.90;99.90;;;;;;5056997;28;20032;-89
2021/09/09 08:12:02;;;;;;;18.20;9.55;;;21.70;99.90;;;;;;5055400;28;20052;-88
2021/09/09 08:14:29;;;;;;;19.17;9.18;;;20.80;99.90;;;;;;5057550;28;20049;-89
2021/09/09 08:16:54;;;;;;;16.55;9.00;;;21.10;99.90;;;;;;5055981;28;20017;-89
2021/09/09 08:19:20;;;;;;;18.10;9.07;;;21.00;99.90;;;;;;5057965;28;20485;-90
2021/09/09 08:21:46;;;;;;;16.45;9.00;;;21.20;99.90;;;;;;5057767;28;20021;-90
2021/09/09 08:24:11;;;;;;;22.73;9.65;;;21.20;99.90;;;;;;5055805;28;20025;-89
2021/09/09 08:26:37;;;;;;;15.10;8.63;;;21.70;99.90;;;;;;5056505;28;20039;-90
2021/09/09 08:29:03;;;;;;;20.27;9.68;;;20.00;99.90;;;;;;5058678;28;20021;-87
2021/09/09 08:31:29;;;;;;;17.08;8.98;;;22.30;99.90;;;;;;5057822;28;20021;-88
2021/09/09 08:33:56;;;;;;;18.63;9.95;;;21.40;99.90;;;;;;5057356;28;20079;-87
2021/09/09 08:36:22;;;;;;;16.40;8.93;;;21.90;99.90;;;;;;5057545;28;20025;-87
2021/09/09 08:38:49;;;;;;;16.35;8.70;;;21.90;99.90;;;;;;5058828;28;20041;-88
2021/09/09 08:41:17;;;;;;;15.52;8.65;;;25.10;99.90;;;;;;5058814;28;20028;-88
2021/09/09 08:43:43;;;;;;;16.17;8.07;;;22.10;99.90;;;;;;5057912;28;20033;-89
2021/09/09 08:46:11;;;;;;;17.27;8.70;;;21.80;99.90;;;;;;5057645;28;20032;-87
2021/09/09 08:48:39;;;;;;;16.63;9.02;;;24.20;99.90;;;;;;5057413;28;20063;-87
2021/09/09 08:51:05;;;;;;;16.52;9.55;;;22.10;99.90;;;;;;5056124;28;20036;-87
2021/09/09 08:53:31;;;;;;;14.90;8.52;;;25.40;99.90;;;;;;5057517;28;20035;-87
2021/09/09 08:55:57;;;;;;;20.27;10.10;;;22.70;99.90;;;;;;5056613;28;20474;-87
2021/09/09 08:58:23;;;;;;;16.17;8.98;;;22.40;99.90;;;;;;5058285;28;20025;-88
2021/09/09 09:01:10;;;;;;;18.20;9.18;;;19.80;99.90;;;;;;5057419;28;20052;-87
2021/09/09 09:03:48;;;;;;;18.42;9.27;;;22.70;99.90;;;;;;5057538;28;20052;-87
2021/09/09 09:06:25;;;;;;;17.70;9.70;;;22.50;99.90;;;;;;5056556;28;20120;-88
2021/09/09 09:08:56;;;;;;;17.08;9.20;;;25.20;99.90;;;;;;5061758;28;20021;-87
2021/09/09 09:11:33;;;;;;;15.27;8.27;;;22.80;99.90;;;;;;5078629;28;20017;-87
2021/09/09 09:14:05;;;;;;;14.67;8.37;;;23.40;99.90;;;;;;5078148;28;20025;-87
2021/09/09 09:16:34;;;;;;;16.90;9.00;;;24.40;99.90;;;;;;5077131;28;20017;-88
2021/09/09 09:19:08;;;;;;;15.13;8.25;;;23.50;99.90;;;;;;5056089;28;20025;-89
2021/09/09 09:21:41;;;;;;;15.57;8.38;;;23.30;99.90;;;;;;5057316;28;20064;-89
2021/09/09 09:24:07;;;;;;;16.55;8.52;;;23.80;99.90;;;;;;5057532;28;20021;-87
2021/09/09 09:26:32;;;;;;;15.57;8.20;;;23.50;99.90;;;;;;5056602;28;20033;-88
2021/09/09 09:29:00;;;;;;;15.15;8.00;;;23.80;99.90;;;;;;5060874;28;20040;-87
2021/09/09 09:31:34;;;;;;;14.13;8.10;;;23.80;99.90;;;;;;5061626;28;20036;-88
2021/09/09 09:34:10;;;;;;;15.35;8.40;;;23.60;99.90;;;;;;5059544;28;20013;-88
2021/09/09 09:36:42;;;;;;;20.50;9.05;;;24.90;99.90;;;;;;5059248;28;20060;-87
2021/09/09 09:39:14;;;;;;;15.43;8.52;;;23.60;99.90;;;;;;5060420;28;20497;-88
2021/09/09 09:41:57;;;;;;;15.77;8.07;;;23.80;99.90;;;;;;5059581;28;20021;-88
2021/09/09 09:44:30;;;;;;;16.38;8.20;;;25.30;99.90;;;;;;5061767;28;20021;-87
2021/09/09 09:47:05;;;;;;;17.42;8.13;;;24.40;99.90;;;;;;5060630;28;20025;-88
2021/09/09 09:49:31;;;;;;;19.23;8.65;;;24.30;99.90;;;;;;5060866;28;20041;-87
2021/09/09 09:52:02;;;;;;;16.25;8.45;;;25.50;99.90;;;;;;5060720;28;20021;-88
2021/09/09 09:54:28;;;;;;;16.05;8.52;;;24.50;99.90;;;;;;5068607;28;20074;-87
2021/09/09 09:56:59;;;;;;;19.08;7.75;;;24.70;99.90;;;;;;5060903;28;20017;-87
2021/09/09 09:59:25;;;;;;;18.77;8.57;;;26.10;99.90;;;;;;5064326;28;20493;-86
2021/09/09 10:01:51;;;;;;;15.38;8.90;;;24.90;99.90;;;;;;5065027;28;20036;-87
2021/09/09 10:04:21;;;;;;;15.30;8.15;;;24.70;99.90;;;;;;5073681;28;20024;-87
2021/09/09 10:06:52;;;;;;;15.93;7.97;;;28.40;99.90;;;;;;5075483;28;20017;-88
2021/09/09 10:09:19;;;;;;;16.05;8.60;;;24.80;99.90;;;;;;5079200;28;20028;-87
2021/09/09 10:11:51;;;;;;;16.13;8.73;;;27.00;99.90;;;;;;5081138;28;20080;-88
2021/09/09 10:14:22;;;;;;;19.13;8.52;;;24.80;99.90;;;;;;5080912;28;20025;-88
2021/09/09 10:16:54;;;;;;;14.38;7.35;;;25.50;99.70;;;;;;5078428;28;20028;-88
2021/09/09 10:19:31;;;;;;;14.77;7.75;;;25.20;98.90;;;;;;5078702;28;20114;-91
2021/09/09 10:22:12;;;;;;;18.60;8.27;;;25.20;98.50;;;;;;5079063;28;20017;-89
2021/09/09 10:24:40;;;;;;;12.77;7.72;;;26.00;98.10;;;;;;5077756;28;20029;-90
2021/09/09 10:27:19;;;;;;;;;;;25.50;97.50;;;;;;5077857;28;20024;-90
2021/09/09 10:29:47;;;;;;;17.40;7.75;;;25.70;97.70;;;;;;5077038;28;19904;-90
2021/09/09 10:32:31;;;;;;;21.27;8.07;;;24.60;96.60;;;;;;5076848;28;20065;-90
2021/09/09 10:35:19;;;;;;;16.15;7.55;;;26.50;96.10;;;;;;5076981;28;20036;-90
2021/09/09 10:37:46;;;;;;;17.33;8.13;;;25.40;96.50;;;;;;5078103;28;20039;-90
2021/09/09 10:40:31;;;;;;;17.75;7.28;;;25.60;96.30;;;;;;5077128;28;20036;-89
2021/09/09 10:42:59;;;;;;;14.30;7.20;;;26.30;97.20;;;;;;5078862;28;20474;-88
2021/09/09 10:45:34;;;;;;;13.27;7.78;;;25.20;96.40;;;;;;5077951;28;20020;-90
2021/09/09 10:48:05;;;;;;;13.50;7.00;;;25.90;96.90;;;;;;5078559;28;20482;-89
2021/09/09 10:50:40;;;;;;;18.50;8.02;;;25.90;95.50;;;;;;5076988;28;20020;-89
2021/09/09 10:53:12;;;;;;;16.08;7.35;;;25.80;96.00;;;;;;5060384;28;20040;-90
2021/09/09 10:55:42;;;;;;;15.85;8.18;;;28.60;97.50;;;;;;5077503;28;20028;-89
2021/09/09 10:58:20;;;;;;;14.20;6.68;;;26.10;96.00;;;;;;5077204;28;20048;-90
2021/09/09 11:01:05;;;;;;;15.07;7.10;;;26.20;96.30;;;;;;5077221;28;20512;-90
2021/09/09 11:03:42;;;;;;;11.88;7.10;;;27.60;95.80;;;;;;5098978;28;20035;-89
2021/09/09 11:06:18;;;;;;;14.90;7.80;;;25.40;95.10;;;;;;5100463;28;20015;-86
2021/09/09 11:08:46;;;;;;;15.98;8.02;;;27.90;95.20;;;;;;5097087;28;20023;-88
2021/09/09 11:11:20;;;;;;;16.65;8.55;;;27.40;96.50;;;;;;5077173;28;20051;-86
2021/09/09 11:13:46;;;;;;;14.32;8.00;;;27.30;94.30;;;;;;5077768;28;20540;-86
2021/09/09 11:16:23;;;;;;;15.55;8.77;;;29.80;95.10;;;;;;5078411;28;20108;-86
2021/09/09 11:18:49;;;;;;;14.95;8.00;;;27.30;93.20;;;;;;5076838;28;20021;-87
2021/09/09 11:21:26;;;;;;;16.20;8.80;;;27.80;94.00;;;;;;5078193;28;20028;-88
2021/09/09 11:24:12;;;;;;;14.60;7.40;;;27.50;92.50;;;;;;5076975;28;20111;-87
2021/09/09 11:26:41;;;;;;;15.15;7.63;;;27.60;94.70;;;;;;5077916;28;20032;-87
2021/09/09 11:29:07;;;;;;;12.25;7.65;;;27.60;93.70;;;;;;5076611;28;20029;-87
2021/09/09 11:31:47;;;;;;;11.88;6.78;;;29.90;93.50;;;;;;5076130;28;20048;-87
2021/09/09 11:34:13;;;;;;;11.23;6.72;;;27.60;93.50;;;;;;5076499;28;20112;-87
2021/09/09 11:36:41;;;;;;;12.77;6.72;;;24.40;92.70;;;;;;5076248;28;20029;-88
2021/09/09 11:39:09;;;;;;;11.85;6.22;;;27.70;94.20;;;;;;5076754;28;20017;-87
2021/09/09 11:41:36;;;;;;;18.00;7.60;;;26.90;95.20;;;;;;5076289;28;20024;-88
2021/09/09 11:44:23;;;;;;;14.18;6.82;;;27.00;94.00;;;;;;5076125;28;20048;-87
2021/09/09 11:46:52;;;;;;;13.47;7.33;;;25.00;94.80;;;;;;5076209;28;20494;-87
2021/09/09 11:49:20;;;;;;;14.15;7.47;;;26.90;95.70;;;;;;5076114;28;20098;-88
2021/09/09 11:51:51;;;;;;;12.45;7.30;;;28.10;95.70;;;;;;5077385;28;20477;-88
2021/09/09 11:54:25;;;;;;;14.05;7.38;;;27.60;94.40;;;;;;5075555;28;20055;-88
2021/09/09 11:57:03;;;;;;;14.98;7.72;;;30.60;94.90;;;;;;5076532;28;20441;-88
2021/09/09 11:59:30;;;;;;;10.23;5.97;;;25.90;92.70;;;;;;5076911;28;20020;-87
2021/09/09 12:02:06;;;;;;;11.25;5.85;;;29.30;92.50;;;;;;5076174;28;20017;-88
2021/09/09 12:04:36;;;;;;;11.48;7.03;;;27.50;92.00;;;;;;5075652;28;20482;-88
2021/09/09 12:07:02;;;;;;;12.07;6.57;;;28.60;91.50;;;;;;5075733;28;20020;-88
2021/09/09 12:09:37;;;;;;;11.90;5.25;;;28.80;92.20;;;;;;5075760;28;20032;-88
2021/09/09 12:12:11;;;;;;;6.65;4.93;;;27.60;92.30;;;;;;5075317;28;20031;-87
2021/09/09 12:14:39;;;;;;;7.00;4.53;;;29.30;91.70;;;;;;5075080;28;20089;-88
2021/09/09 12:17:15;;;;;;;7.80;4.90;;;29.30;90.60;;;;;;5075579;28;20028;-88
2021/09/09 12:20:02;;;;;;;6.40;4.20;;;29.00;89.60;;;;;;5076230;28;20028;-87
2021/09/09 12:22:44;;;;;;;11.85;5.65;;;28.60;90.50;;;;;;5076080;28;20378;-86
2021/09/09 12:25:27;;;;;;;10.90;4.75;;;28.60;90.40;;;;;;5075896;28;20025;-86
2021/09/09 12:27:55;;;;;;;13.70;7.43;;;31.40;92.00;;;;;;5075890;28;20032;-87
2021/09/09 12:30:22;;;;;;;;;;;28.20;90.70;;;;;;5076693;28;20115;-88
2021/09/09 12:32:47;;;;;;;8.77;5.22;;;30.10;91.90;;;;;;5076735;28;20348;-87
2021/09/09 12:35:19;;;;;;;12.60;5.60;;;31.50;92.10;;;;;;5075228;28;20484;-89
2021/09/09 12:37:57;;;;;;;9.20;4.85;;;29.30;90.90;;;;;;5075140;28;20366;-87
2021/09/09 12:40:38;;;;;;;9.10;4.65;;;26.80;89.90;;;;;;5075564;28;20092;-87
2021/09/09 12:43:34;;;;;;;8.95;5.15;;;29.10;90.80;;;;;;5075308;28;20036;-87